Time;durP1;ratioP1;P1;durP2;ratioP2;P2;SDS_P1;SDS_P2;PMS_P1;PMS_P2;Temp;Humidity;BMP_temperature;BMP_pressure;BME280_temperature;BME280_humidity;BME280_pressure;Samples;Min_cycle;Max_cycle;Signal;HPM_P1;HPM_P2
2021/01/18 00:00:25;;;;;;;4.10;2.80;;;2.80;44.20;;;;;;5092056;28;20295;-74
2021/01/18 00:02:51;;;;;;;6.25;2.63;;;2.80;44.00;;;;;;5111342;28;20252;-74
2021/01/18 00:05:17;;;;;;;2.70;2.50;;;2.80;44.10;;;;;;5111569;28;20229;-74
2021/01/18 00:07:51;;;;;;;2.88;2.38;;;2.80;44.00;;;;;;5111324;28;20540;-74
2021/01/18 00:10:19;;;;;;;2.58;2.38;;;2.70;43.80;;;;;;5110871;28;20193;-74
2021/01/18 00:12:49;;;;;;;4.28;3.03;;;2.70;44.30;;;;;;5111290;28;20169;-74
2021/01/18 00:15:16;;;;;;;4.80;2.67;;;2.70;44.30;;;;;;5111236;28;20201;-74
2021/01/18 00:17:42;;;;;;;2.75;2.45;;;2.80;44.50;;;;;;5084011;28;20539;-74
2021/01/18 00:20:13;;;;;;;3.05;2.67;;;2.80;44.30;;;;;;5070350;28;20197;-74
2021/01/18 00:22:40;;;;;;;3.90;3.33;;;2.80;44.20;;;;;;5070570;28;20177;-74
2021/01/18 00:25:17;;;;;;;3.00;2.70;;;2.80;44.10;;;;;;5070538;28;20655;-74
2021/01/18 00:27:43;;;;;;;4.47;2.85;;;2.80;43.90;;;;;;5054782;28;20655;-74
2021/01/18 00:30:15;;;;;;;3.05;2.75;;;2.80;43.70;;;;;;5110680;28;20200;-74
2021/01/18 00:32:41;;;;;;;3.25;2.60;;;2.80;43.60;;;;;;5111003;28;20189;-74
2021/01/18 00:35:12;;;;;;;4.10;3.03;;;2.80;43.90;;;;;;5110940;28;20202;-74
2021/01/18 00:37:42;;;;;;;3.08;2.78;;;2.80;43.80;;;;;;5111069;28;20464;-74
2021/01/18 00:40:10;;;;;;;4.95;3.47;;;2.80;44.50;;;;;;5110715;28;20201;-74
2021/01/18 00:42:35;;;;;;;6.80;4.00;;;2.80;43.80;;;;;;5110942;28;20562;-74
2021/01/18 00:45:02;;;;;;;3.13;2.70;;;2.80;44.60;;;;;;5111035;28;20184;-74
2021/01/18 00:47:27;;;;;;;4.15;3.40;;;2.80;43.90;;;;;;5110822;28;20410;-74
2021/01/18 00:49:53;;;;;;;4.30;3.90;;;2.90;43.80;;;;;;5092475;28;20199;-74
2021/01/18 00:52:18;;;;;;;4.43;3.90;;;2.90;43.70;;;;;;5110964;28;20177;-74
2021/01/18 00:54:44;;;;;;;4.57;4.10;;;2.90;43.70;;;;;;5110960;28;20197;-74
2021/01/18 00:57:09;;;;;;;7.83;4.60;;;2.90;43.60;;;;;;5092579;28;20171;-74
2021/01/18 00:59:35;;;;;;;5.70;3.50;;;2.90;43.70;;;;;;5110616;28;20204;-74
2021/01/18 01:02:00;;;;;;;4.43;4.03;;;2.90;43.40;;;;;;5092422;28;20171;-74
2021/01/18 01:04:26;;;;;;;4.43;4.00;;;2.90;43.40;;;;;;5111269;28;20174;-73
2021/01/18 01:06:51;;;;;;;4.47;4.07;;;3.00;43.20;;;;;;5110878;28;20176;-74
2021/01/18 01:09:17;;;;;;;5.87;4.60;;;3.00;43.30;;;;;;5092365;28;20192;-74
2021/01/18 01:11:44;;;;;;;4.20;3.80;;;3.00;43.20;;;;;;5113761;28;20272;-74
2021/01/18 01:14:10;;;;;;;3.97;3.53;;;3.00;43.10;;;;;;5096069;28;20572;-74
2021/01/18 01:16:35;;;;;;;5.07;3.80;;;3.00;42.90;;;;;;5105878;28;20174;-74
2021/01/18 01:19:01;;;;;;;5.90;4.10;;;2.90;43.80;;;;;;5073262;28;20227;-74
2021/01/18 01:21:26;;;;;;;4.00;3.63;;;2.90;43.20;;;;;;5073577;28;20277;-74
2021/01/18 01:23:52;;;;;;;5.30;4.03;;;2.90;42.90;;;;;;5073697;28;20675;-74
2021/01/18 01:26:17;;;;;;;5.93;4.03;;;2.90;43.00;;;;;;5072161;28;20182;-74
2021/01/18 01:28:43;;;;;;;4.83;3.20;;;2.90;43.10;;;;;;5064761;28;20179;-74
2021/01/18 01:31:08;;;;;;;3.40;3.10;;;2.90;43.10;;;;;;5093501;28;20245;-74
2021/01/18 01:33:34;;;;;;;3.77;3.40;;;2.90;43.20;;;;;;5092494;28;20225;-74
2021/01/18 01:36:01;;;;;;;5.33;3.03;;;2.90;43.30;;;;;;5080486;28;20285;-74
2021/01/18 01:38:26;;;;;;;6.80;4.15;;;2.90;43.10;;;;;;5073019;28;20162;-74
2021/01/18 01:40:52;;;;;;;9.80;4.17;;;2.90;43.10;;;;;;5065282;28;20223;-74
2021/01/18 01:43:17;;;;;;;5.50;4.37;;;2.90;43.30;;;;;;5093495;28;20739;-74
2021/01/18 01:45:43;;;;;;;6.30;3.70;;;2.80;43.60;;;;;;5075444;28;20205;-74
2021/01/18 01:48:08;;;;;;;7.07;4.37;;;2.80;43.80;;;;;;5093342;28;20182;-74
2021/01/18 01:50:37;;;;;;;3.70;3.33;;;2.80;44.00;;;;;;5092991;28;20193;-74
2021/01/18 01:53:20;;;;;;;6.00;3.63;;;2.70;44.40;;;;;;5093116;28;20177;-74
2021/01/18 01:55:46;;;;;;;7.80;3.28;;;2.70;44.50;;;;;;5093270;28;20171;-74
2021/01/18 01:58:13;;;;;;;3.75;3.45;;;2.60;44.80;;;;;;5093129;28;20174;-74
2021/01/18 02:00:41;;;;;;;6.55;3.33;;;2.60;45.00;;;;;;5092855;28;20281;-74
2021/01/18 02:03:11;;;;;;;5.07;3.35;;;2.60;45.30;;;;;;5093026;28;20164;-74
2021/01/18 02:05:37;;;;;;;5.22;3.90;;;2.60;45.40;;;;;;5074958;28;20268;-74
2021/01/18 02:08:05;;;;;;;4.70;4.03;;;2.60;45.30;;;;;;5093038;28;20179;-74
2021/01/18 02:10:31;;;;;;;3.50;3.20;;;2.70;45.20;;;;;;5092569;28;20197;-74
2021/01/18 02:13:20;;;;;;;3.53;3.22;;;2.70;45.00;;;;;;5092734;28;20170;-74
2021/01/18 02:15:59;;;;;;;3.22;2.92;;;2.70;44.50;;;;;;5092889;28;20805;-74
2021/01/18 02:19:06;;;;;;;5.90;3.42;;;3.20;44.90;;;;;;5074596;28;20224;-74
2021/01/18 02:22:00;;;;;;;6.05;3.50;;;2.60;45.20;;;;;;5074110;28;20190;-74
2021/01/18 02:24:44;;;;;;;4.35;3.67;;;2.60;45.30;;;;;;5092831;28;20174;-74
2021/01/18 02:27:43;;;;;;;6.57;4.70;;;2.60;45.60;;;;;;5092611;28;20183;-74
2021/01/18 02:30:29;;;;;;;4.13;3.50;;;2.60;45.90;;;;;;5092492;28;20226;-74
2021/01/18 02:33:07;;;;;;;3.15;2.83;;;2.60;45.80;;;;;;5092620;28;20178;-73
2021/01/18 02:36:01;;;;;;;3.70;3.40;;;2.60;45.30;;;;;;5092560;28;20174;-74
2021/01/18 02:38:38;;;;;;;3.97;3.30;;;2.50;45.80;;;;;;5092361;28;20269;-73
2021/01/18 02:41:26;;;;;;;3.88;3.55;;;2.60;45.30;;;;;;5073990;28;20726;-73
2021/01/18 02:43:58;;;;;;;5.95;3.85;;;2.60;45.50;;;;;;5092156;28;20184;-73
2021/01/18 02:46:26;;;;;;;3.78;2.90;;;2.60;45.20;;;;;;5092289;28;20173;-74
2021/01/18 02:48:53;;;;;;;3.60;3.00;;;2.60;45.00;;;;;;5074238;28;20611;-73
2021/01/18 02:51:21;;;;;;;3.30;3.00;;;2.70;45.30;;;;;;5091965;28;20198;-74
2021/01/18 02:54:00;;;;;;;3.17;2.88;;;2.70;45.20;;;;;;5092156;28;20201;-73
2021/01/18 02:56:36;;;;;;;4.50;3.03;;;2.70;44.80;;;;;;5092127;28;20222;-74
2021/01/18 02:59:03;;;;;;;3.63;2.67;;;2.70;44.60;;;;;;5091653;28;20169;-74
2021/01/18 03:02:03;;;;;;;2.85;2.65;;;2.80;44.50;;;;;;5091728;28;20185;-74
2021/01/18 03:04:53;;;;;;;5.50;3.67;;;2.80;44.00;;;;;;5091925;28;20171;-74
2021/01/18 03:07:39;;;;;;;3.20;2.90;;;2.80;43.80;;;;;;5092053;28;20170;-75
2021/01/18 03:10:16;;;;;;;4.50;3.50;;;2.70;44.20;;;;;;5073606;28;20197;-74
2021/01/18 03:13:01;;;;;;;3.05;2.85;;;2.70;44.30;;;;;;5092011;28;20666;-74
2021/01/18 03:15:30;;;;;;;6.20;3.38;;;2.70;44.20;;;;;;5073702;28;20342;-74
2021/01/18 03:18:00;;;;;;;7.85;3.72;;;2.70;44.20;;;;;;5076254;28;20243;-73
2021/01/18 03:20:26;;;;;;;2.30;2.10;;;2.70;44.20;;;;;;5053151;28;20190;-73
2021/01/18 03:22:52;;;;;;;2.67;2.15;;;2.70;44.00;;;;;;5071481;28;20176;-74
2021/01/18 03:25:17;;;;;;;5.57;3.33;;;2.70;43.50;;;;;;5071437;28;20188;-73
2021/01/18 03:27:57;;;;;;;3.10;2.67;;;2.70;44.30;;;;;;5071260;28;20416;-75
2021/01/18 03:30:24;;;;;;;4.18;2.55;;;2.70;44.00;;;;;;5117955;22;20227;-74
2021/01/18 03:32:51;;;;;;;4.70;2.75;;;2.80;43.60;;;;;;5091549;28;20186;-74
2021/01/18 03:35:18;;;;;;;3.33;3.03;;;2.80;43.60;;;;;;5091119;28;20243;-74
2021/01/18 03:37:55;;;;;;;2.67;2.25;;;2.70;43.70;;;;;;5091580;28;20654;-74
2021/01/18 03:40:23;;;;;;;2.72;2.40;;;2.70;44.10;;;;;;5074155;28;20681;-74
2021/01/18 03:43:00;;;;;;;5.38;3.00;;;2.70;44.00;;;;;;5074281;28;20660;-71
2021/01/18 03:45:27;;;;;;;3.30;2.60;;;2.80;44.00;;;;;;5091785;28;20267;-71
2021/01/18 03:47:53;;;;;;;3.30;2.78;;;2.80;44.10;;;;;;5091895;28;20167;-72
2021/01/18 03:50:19;;;;;;;2.93;2.23;;;2.80;43.60;;;;;;5106285;28;20253;-71
2021/01/18 03:52:48;;;;;;;4.27;3.13;;;2.80;43.40;;;;;;5112509;28;20166;-71
2021/01/18 03:55:14;;;;;;;7.03;3.50;;;2.70;43.40;;;;;;5111970;28;20198;-71
2021/01/18 03:57:41;;;;;;;2.77;2.33;;;2.70;43.80;;;;;;5093908;28;20192;-71
2021/01/18 04:00:07;;;;;;;2.83;2.58;;;2.70;43.90;;;;;;5111978;28;20177;-71
2021/01/18 04:02:33;;;;;;;3.67;2.70;;;2.70;44.00;;;;;;5112213;28;20172;-72
2021/01/18 04:04:59;;;;;;;3.90;2.93;;;2.70;44.20;;;;;;5112418;28;20528;-71
2021/01/18 04:07:24;;;;;;;3.10;2.80;;;2.70;44.30;;;;;;5112625;28;20935;-72
2021/01/18 04:09:50;;;;;;;5.23;3.40;;;2.70;44.50;;;;;;5114377;28;20549;-72
2021/01/18 04:12:16;;;;;;;2.70;2.50;;;2.70;44.10;;;;;;5095278;28;20203;-72
2021/01/18 04:14:41;;;;;;;2.80;2.60;;;2.70;44.00;;;;;;5112659;28;20209;-72
2021/01/18 04:17:08;;;;;;;5.63;3.40;;;2.80;44.00;;;;;;5113404;28;20255;-72
2021/01/18 04:19:33;;;;;;;3.28;2.42;;;2.80;43.60;;;;;;5113245;28;20166;-71
2021/01/18 04:21:59;;;;;;;2.50;2.23;;;2.70;43.80;;;;;;5112731;28;20710;-72
2021/01/18 04:24:24;;;;;;;2.90;2.60;;;2.70;43.80;;;;;;5113392;28;20684;-72
2021/01/18 04:26:50;;;;;;;3.53;3.23;;;2.70;43.90;;;;;;5094457;28;20215;-72
2021/01/18 04:29:16;;;;;;;3.73;2.53;;;2.70;44.00;;;;;;5111517;28;20181;-72
2021/01/18 04:31:42;;;;;;;5.20;2.83;;;2.70;43.70;;;;;;5112438;28;20208;-72
2021/01/18 04:34:11;;;;;;;4.18;3.78;;;2.70;43.60;;;;;;5094495;28;20454;-73
2021/01/18 04:36:38;;;;;;;3.50;3.20;;;2.70;43.60;;;;;;5113606;28;20272;-73
2021/01/18 04:39:06;;;;;;;5.38;3.58;;;2.70;43.80;;;;;;5094749;28;20179;-73
2021/01/18 04:41:33;;;;;;;4.18;2.90;;;2.70;43.90;;;;;;5095145;28;20610;-73
2021/01/18 04:43:59;;;;;;;3.88;3.10;;;2.70;43.70;;;;;;5113068;28;20177;-73
2021/01/18 04:46:29;;;;;;;5.45;3.30;;;2.70;43.70;;;;;;5115808;28;20171;-73
2021/01/18 04:48:57;;;;;;;5.72;3.17;;;2.70;43.40;;;;;;5116833;28;20177;-73
2021/01/18 04:51:24;;;;;;;6.13;3.72;;;2.80;43.30;;;;;;5116372;28;20213;-73
2021/01/18 04:53:53;;;;;;;3.50;2.80;;;2.80;43.20;;;;;;5116131;28;20276;-72
2021/01/18 04:56:35;;;;;;;8.55;3.80;;;2.80;43.10;;;;;;5097825;28;20200;-73
2021/01/18 04:59:03;;;;;;;6.28;4.10;;;2.70;43.10;;;;;;5096936;28;20176;-72
2021/01/18 05:01:32;;;;;;;7.45;4.05;;;2.70;43.30;;;;;;5096774;28;20599;-73
2021/01/18 05:04:12;;;;;;;6.55;3.72;;;2.80;43.00;;;;;;5097794;28;20660;-73
2021/01/18 05:06:45;;;;;;;3.20;2.88;;;2.80;42.70;;;;;;5097736;28;20191;-73
2021/01/18 05:09:26;;;;;;;3.88;3.47;;;2.80;42.60;;;;;;5115506;28;20176;-72
2021/01/18 05:11:52;;;;;;;4.97;3.83;;;2.80;42.40;;;;;;5115765;28;20257;-73
2021/01/18 05:14:17;;;;;;;4.07;3.67;;;2.80;42.20;;;;;;5115846;28;20240;-72
2021/01/18 05:16:53;;;;;;;3.73;3.37;;;2.80;42.30;;;;;;5094360;28;20177;-72
2021/01/18 05:19:20;;;;;;;7.25;4.35;;;2.80;42.30;;;;;;5076864;28;20173;-75
2021/01/18 05:21:46;;;;;;;4.50;3.15;;;2.80;42.10;;;;;;5095003;28;20219;-72
2021/01/18 05:24:13;;;;;;;8.23;4.63;;;2.80;41.80;;;;;;5094286;28;20176;-74
2021/01/18 05:26:39;;;;;;;5.90;3.50;;;2.80;42.00;;;;;;5076131;28;20181;-72
2021/01/18 05:29:05;;;;;;;5.13;3.72;;;2.80;41.70;;;;;;5093586;28;20246;-74
2021/01/18 05:31:33;;;;;;;5.60;3.80;;;2.80;41.70;;;;;;5094198;28;20208;-72
2021/01/18 05:34:11;;;;;;;4.35;3.95;;;2.80;41.40;;;;;;5094349;28;20810;-72
2021/01/18 05:36:45;;;;;;;4.60;3.58;;;2.90;41.50;;;;;;5076160;28;20170;-72
2021/01/18 05:39:17;;;;;;;5.30;4.35;;;2.90;41.40;;;;;;5093782;28;20238;-72
2021/01/18 05:41:45;;;;;;;6.03;3.88;;;2.90;41.10;;;;;;5093917;28;20185;-72
2021/01/18 05:44:11;;;;;;;6.57;4.32;;;2.90;40.90;;;;;;5094181;28;20186;-72
2021/01/18 05:46:41;;;;;;;5.30;3.80;;;2.80;41.10;;;;;;5075991;28;20186;-72
2021/01/18 05:49:19;;;;;;;7.85;3.80;;;2.80;41.20;;;;;;5093851;28;20409;-73
2021/01/18 05:51:52;;;;;;;3.67;2.72;;;2.80;41.00;;;;;;5093385;28;20197;-72
2021/01/18 05:54:24;;;;;;;4.50;3.88;;;2.90;40.80;;;;;;5075228;28;20201;-71
2021/01/18 05:56:55;;;;;;;6.95;3.40;;;2.90;40.50;;;;;;5092849;28;20258;-71
2021/01/18 05:59:23;;;;;;;4.20;3.72;;;2.90;40.20;;;;;;5093153;28;20236;-71
2021/01/18 06:01:50;;;;;;;5.15;3.80;;;2.80;40.30;;;;;;5093111;28;20703;-71
2021/01/18 06:04:18;;;;;;;6.00;3.65;;;2.80;40.60;;;;;;5074855;28;20185;-71
2021/01/18 06:06:56;;;;;;;6.47;4.30;;;2.80;40.10;;;;;;5093162;28;20201;-72
2021/01/18 06:09:24;;;;;;;5.65;3.85;;;2.70;39.90;;;;;;5093116;28;20593;-72
2021/01/18 06:11:49;;;;;;;4.95;4.03;;;2.60;39.90;;;;;;5092874;28;20189;-72
2021/01/18 06:14:18;;;;;;;9.20;4.40;;;2.60;40.10;;;;;;5093268;28;20212;-72
2021/01/18 06:16:47;;;;;;;4.30;3.33;;;2.50;40.00;;;;;;5093200;28;20203;-71
2021/01/18 06:19:20;;;;;;;4.03;3.63;;;2.50;40.20;;;;;;5092653;28;20171;-71
2021/01/18 06:21:47;;;;;;;6.07;3.55;;;2.60;39.70;;;;;;5092092;28;20400;-72
2021/01/18 06:24:16;;;;;;;4.43;3.45;;;2.60;39.10;;;;;;5092682;28;20551;-72
2021/01/18 06:26:42;;;;;;;8.18;3.28;;;2.60;38.80;;;;;;5092577;28;20173;-72
2021/01/18 06:29:08;;;;;;;12.60;3.30;;;2.70;38.50;;;;;;5081268;28;20232;-72
2021/01/18 06:31:45;;;;;;;6.50;3.57;;;2.70;38.00;;;;;;5113051;28;20232;-71
2021/01/18 06:34:26;;;;;;;7.03;3.65;;;2.70;37.50;;;;;;5113003;28;20669;-71
2021/01/18 06:36:55;;;;;;;5.38;3.47;;;2.70;37.40;;;;;;5094938;28;20194;-71
2021/01/18 06:39:24;;;;;;;6.35;3.67;;;2.80;47.40;;;;;;5094564;28;20173;-71
2021/01/18 06:41:58;;;;;;;6.03;3.17;;;3.10;46.60;;;;;;5112827;28;20184;-71
2021/01/18 06:44:39;;;;;;;7.28;3.75;;;2.80;44.50;;;;;;5113651;28;20196;-71
2021/01/18 06:47:28;;;;;;;4.25;2.88;;;2.90;44.70;;;;;;5113600;28;20398;-71
2021/01/18 06:49:56;;;;;;;8.80;2.97;;;2.80;36.60;;;;;;5113052;28;20202;-72
2021/01/18 06:52:24;;;;;;;18.70;4.22;;;2.70;37.50;;;;;;5095142;28;20597;-71
2021/01/18 06:55:07;;;;;;;4.15;3.53;;;2.70;37.90;;;;;;5094704;28;20292;-72
2021/01/18 06:57:54;;;;;;;9.02;4.80;;;2.70;38.40;;;;;;5095054;28;20195;-71
2021/01/18 07:00:20;;;;;;;10.55;4.43;;;2.70;38.70;;;;;;5095286;28;20226;-73
2021/01/18 07:03:00;;;;;;;5.40;2.97;;;2.70;38.90;;;;;;5113268;28;20176;-72
2021/01/18 07:05:36;;;;;;;4.75;4.35;;;2.70;39.00;;;;;;5113234;28;20251;-71
2021/01/18 07:08:13;;;;;;;5.57;3.97;;;2.70;39.40;;;;;;5112727;28;20172;-71
2021/01/18 07:10:49;;;;;;;7.88;4.47;;;2.70;39.20;;;;;;5112168;28;20188;-72
2021/01/18 07:13:18;;;;;;;6.15;5.13;;;2.70;39.60;;;;;;5112023;28;20178;-72
2021/01/18 07:15:44;;;;;;;5.95;4.97;;;2.70;39.50;;;;;;5112552;28;20170;-71
2021/01/18 07:18:12;;;;;;;6.13;4.07;;;2.70;39.90;;;;;;5095325;28;20181;-72
2021/01/18 07:20:39;;;;;;;6.32;5.22;;;2.70;40.10;;;;;;5096518;28;20423;-72
2021/01/18 07:23:08;;;;;;;6.47;4.90;;;2.70;40.20;;;;;;5098858;28;20177;-72
2021/01/18 07:25:39;;;;;;;6.38;4.32;;;2.60;40.30;;;;;;5103117;28;20224;-73
2021/01/18 07:28:06;;;;;;;6.13;4.97;;;2.60;40.40;;;;;;5085406;28;20188;-72
2021/01/18 07:30:36;;;;;;;5.60;5.10;;;2.60;40.70;;;;;;5101575;28;20299;-72
2021/01/18 07:33:16;;;;;;;4.90;4.50;;;2.70;40.90;;;;;;5084382;28;20178;-72
2021/01/18 07:35:44;;;;;;;6.05;4.47;;;2.80;40.60;;;;;;5087761;28;20272;-73
2021/01/18 07:38:13;;;;;;;7.53;5.07;;;2.80;40.10;;;;;;5105737;28;20327;-72
2021/01/18 07:40:40;;;;;;;5.47;4.45;;;2.80;39.50;;;;;;5104573;28;20194;-73
2021/01/18 07:43:06;;;;;;;20.90;5.68;;;2.90;39.90;;;;;;5103374;28;20176;-72
2021/01/18 07:45:32;;;;;;;6.82;4.82;;;3.00;39.70;;;;;;5112973;28;20211;-72
2021/01/18 07:47:57;;;;;;;5.20;4.73;;;3.00;39.20;;;;;;5112561;28;20322;-73
2021/01/18 07:50:41;;;;;;;9.63;5.90;;;3.10;48.80;;;;;;5112050;28;20460;-73
2021/01/18 07:53:09;;;;;;;9.32;6.07;;;3.20;43.30;;;;;;5112060;28;20168;-71
2021/01/18 07:55:37;;;;;;;5.07;4.63;;;3.30;40.80;;;;;;5093896;28;20314;-71
2021/01/18 07:58:18;;;;;;;6.95;4.47;;;3.40;39.70;;;;;;5094121;28;20187;-73
2021/01/18 08:00:45;;;;;;;5.63;4.97;;;3.40;38.70;;;;;;5112883;28;20267;-73
2021/01/18 08:03:10;;;;;;;5.10;3.92;;;3.50;37.90;;;;;;5111797;28;20169;-73
2021/01/18 08:05:38;;;;;;;4.20;3.50;;;3.50;37.40;;;;;;5112402;28;20516;-72
2021/01/18 08:08:07;;;;;;;5.13;4.63;;;3.60;37.60;;;;;;5097867;28;20555;-74
2021/01/18 08:10:55;;;;;;;7.60;5.10;;;3.60;36.90;;;;;;5115687;28;20189;-73
2021/01/18 08:13:34;;;;;;;4.53;4.05;;;3.60;36.90;;;;;;5114406;28;20178;-73
2021/01/18 08:16:22;;;;;;;6.18;4.25;;;3.60;36.90;;;;;;5096440;28;20177;-73
2021/01/18 08:18:48;;;;;;;5.68;5.13;;;3.50;36.90;;;;;;5096857;28;20181;-73
2021/01/18 08:21:32;;;;;;;8.27;6.03;;;3.60;36.90;;;;;;5117473;28;20184;-73
2021/01/18 08:24:02;;;;;;;11.85;5.45;;;3.50;36.50;;;;;;5101455;28;20225;-73
2021/01/18 08:26:27;;;;;;;8.63;4.78;;;3.50;36.90;;;;;;5101621;28;20540;-73
2021/01/18 08:28:54;;;;;;;8.17;4.03;;;3.60;36.90;;;;;;5119685;28;20184;-73
2021/01/18 08:31:20;;;;;;;6.35;4.82;;;3.70;36.60;;;;;;5118885;28;20236;-73
2021/01/18 08:33:45;;;;;;;13.43;7.70;;;3.70;36.50;;;;;;5100684;28;20266;-73
2021/01/18 08:36:11;;;;;;;14.50;9.23;;;3.70;35.90;;;;;;5118860;28;20433;-73
2021/01/18 08:38:37;;;;;;;14.20;8.93;;;3.80;35.70;;;;;;5118597;28;20264;-72
2021/01/18 08:41:10;;;;;;;12.10;7.10;;;3.90;35.10;;;;;;5118568;28;20227;-72
2021/01/18 08:43:47;;;;;;;10.93;6.97;;;4.00;34.90;;;;;;5119205;28;20178;-73
2021/01/18 08:46:39;;;;;;;6.68;4.50;;;4.00;34.30;;;;;;5114751;28;20259;-73
2021/01/18 08:49:24;;;;;;;4.65;3.20;;;4.10;34.40;;;;;;5084875;28;20268;-73
2021/01/18 08:51:51;;;;;;;5.93;3.90;;;4.10;33.40;;;;;;5095572;28;20213;-73
2021/01/18 08:54:37;;;;;;;4.40;4.03;;;4.00;33.90;;;;;;5099009;28;20221;-73
2021/01/18 08:57:17;;;;;;;3.78;3.28;;;3.90;33.80;;;;;;5092002;28;20663;-73
2021/01/18 08:59:43;;;;;;;4.25;3.85;;;3.90;34.00;;;;;;5091262;28;20197;-73
2021/01/18 09:02:19;;;;;;;4.57;4.17;;;3.90;34.20;;;;;;5092184;28;20198;-74
2021/01/18 09:04:44;;;;;;;4.07;3.33;;;3.80;34.30;;;;;;5074643;28;20435;-74
2021/01/18 09:07:12;;;;;;;4.47;3.67;;;3.80;32.80;;;;;;5093337;28;20235;-73
2021/01/18 09:09:39;;;;;;;9.02;3.63;;;3.80;33.30;;;;;;5091200;28;20841;-73
2021/01/18 09:12:08;;;;;;;4.95;3.92;;;3.80;33.40;;;;;;5073942;28;20210;-71
2021/01/18 09:14:34;;;;;;;5.88;4.22;;;3.80;41.70;;;;;;5093622;28;20229;-72
2021/01/18 09:17:09;;;;;;;4.05;3.28;;;3.90;42.80;;;;;;5088156;28;20186;-73
2021/01/18 09:19:51;;;;;;;4.78;4.13;;;3.90;42.60;;;;;;5086155;28;20536;-72
2021/01/18 09:22:20;;;;;;;4.38;3.40;;;3.90;50.10;;;;;;5108631;28;20198;-72
2021/01/18 09:24:46;;;;;;;6.60;4.40;;;3.90;35.20;;;;;;5111673;28;20177;-72
2021/01/18 09:27:13;;;;;;;6.03;3.45;;;4.00;32.90;;;;;;5111728;28;20546;-73
2021/01/18 09:29:38;;;;;;;4.13;3.75;;;4.10;32.30;;;;;;5114678;28;20227;-72
2021/01/18 09:32:04;;;;;;;12.20;6.20;;;4.10;32.30;;;;;;5117529;28;20216;-73
2021/01/18 09:34:30;;;;;;;11.43;6.72;;;4.00;32.30;;;;;;5110895;28;20696;-73
2021/01/18 09:37:06;;;;;;;11.50;7.30;;;4.00;32.70;;;;;;5098033;28;20268;-73
2021/01/18 09:39:32;;;;;;;13.88;6.82;;;3.90;32.90;;;;;;5119054;28;20172;-70
2021/01/18 09:41:59;;;;;;;8.83;6.57;;;4.00;32.90;;;;;;5118463;28;20191;-70
2021/01/18 09:44:24;;;;;;;14.07;7.35;;;4.00;33.20;;;;;;5118681;28;20176;-72
2021/01/18 09:46:51;;;;;;;9.10;5.30;;;4.10;33.00;;;;;;5116301;28;20175;-71
2021/01/18 09:49:26;;;;;;;5.07;3.85;;;4.10;32.80;;;;;;5113475;28;20790;-72
2021/01/18 09:51:53;;;;;;;4.90;4.40;;;4.20;32.40;;;;;;5113564;28;20196;-72
2021/01/18 09:54:19;;;;;;;5.28;3.92;;;4.30;32.40;;;;;;5114346;28;20573;-71
2021/01/18 09:56:45;;;;;;;6.57;4.30;;;4.40;32.30;;;;;;5115245;28;20182;-72
2021/01/18 09:59:14;;;;;;;5.40;3.90;;;4.50;32.20;;;;;;5114211;28;20174;-72
2021/01/18 10:01:42;;;;;;;4.57;4.17;;;4.60;31.30;;;;;;5114133;28;20468;-72
2021/01/18 10:04:21;;;;;;;3.87;3.50;;;4.70;30.50;;;;;;5095477;28;20421;-71
2021/01/18 10:06:49;;;;;;;6.18;4.70;;;4.80;30.40;;;;;;5095178;28;20455;-72
2021/01/18 10:09:20;;;;;;;6.83;4.30;;;4.80;30.70;;;;;;5113335;28;20266;-72
2021/01/18 10:11:49;;;;;;;4.50;3.57;;;4.90;30.50;;;;;;5113413;28;20459;-73
2021/01/18 10:14:19;;;;;;;7.90;4.70;;;5.10;30.00;;;;;;5114275;28;20459;-71
2021/01/18 10:17:01;;;;;;;4.77;4.00;;;5.10;29.20;;;;;;5095658;28;20412;-71
2021/01/18 10:19:31;;;;;;;5.57;5.05;;;5.10;29.10;;;;;;5112914;28;20412;-72
2021/01/18 10:21:58;;;;;;;5.17;4.67;;;5.10;29.30;;;;;;5113179;28;20195;-72
2021/01/18 10:24:31;;;;;;;6.33;4.90;;;5.10;29.30;;;;;;5113869;28;20413;-72
2021/01/18 10:27:07;;;;;;;8.57;4.85;;;5.00;29.20;;;;;;5117073;28;20493;-73
2021/01/18 10:29:33;;;;;;;6.30;4.77;;;4.90;33.60;;;;;;5124950;28;20216;-71
2021/01/18 10:31:59;;;;;;;6.17;5.53;;;4.90;33.90;;;;;;5113309;28;20460;-71
2021/01/18 10:34:30;;;;;;;5.50;5.00;;;4.80;34.00;;;;;;5112635;28;20457;-71
2021/01/18 10:37:07;;;;;;;6.17;4.90;;;4.80;34.90;;;;;;5095110;28;20851;-71
2021/01/18 10:39:35;;;;;;;3.60;3.30;;;4.90;34.50;;;;;;5112581;28;20885;-71
2021/01/18 10:42:12;;;;;;;5.77;3.63;;;5.00;33.80;;;;;;5112981;28;20278;-71
2021/01/18 10:44:49;;;;;;;4.80;3.50;;;5.10;33.00;;;;;;5112135;28;20420;-72
2021/01/18 10:47:15;;;;;;;4.30;3.90;;;5.00;38.10;;;;;;5112683;28;20440;-71
2021/01/18 10:49:40;;;;;;;3.93;3.53;;;5.10;37.10;;;;;;5094134;28;20487;-73
2021/01/18 10:52:11;;;;;;;4.23;3.60;;;5.10;36.70;;;;;;5112364;28;20690;-71
2021/01/18 10:54:37;;;;;;;4.33;3.50;;;5.10;36.20;;;;;;5113934;28;20206;-72
2021/01/18 10:57:19;;;;;;;4.97;4.30;;;5.20;35.20;;;;;;5112592;28;20903;-71
2021/01/18 10:59:44;;;;;;;4.47;3.83;;;5.20;33.10;;;;;;5112257;28;20434;-73
2021/01/18 11:02:13;;;;;;;5.70;3.90;;;5.30;33.10;;;;;;5112278;28;20674;-71
2021/01/18 11:04:46;;;;;;;5.40;4.30;;;5.50;32.20;;;;;;5093872;28;20185;-72
2021/01/18 11:07:13;;;;;;;4.50;4.10;;;5.70;31.30;;;;;;5093897;28;20425;-71
2021/01/18 11:09:39;;;;;;;4.00;3.63;;;5.80;30.40;;;;;;5093808;28;20462;-73
2021/01/18 11:12:06;;;;;;;3.90;3.60;;;6.00;29.90;;;;;;5112670;28;20438;-74
2021/01/18 11:14:32;;;;;;;4.77;4.43;;;6.00;29.90;;;;;;5114185;28;20821;-72
2021/01/18 11:17:06;;;;;;;5.20;3.77;;;6.00;30.10;;;;;;5094291;28;20425;-72
2021/01/18 11:19:33;;;;;;;4.63;4.23;;;5.90;30.80;;;;;;5112045;28;20416;-73
2021/01/18 11:21:59;;;;;;;4.93;4.53;;;6.00;30.40;;;;;;5094150;28;20441;-73
2021/01/18 11:24:24;;;;;;;5.00;4.50;;;5.90;27.60;;;;;;5112679;28;20504;-73
2021/01/18 11:26:52;;;;;;;4.93;4.53;;;5.80;28.10;;;;;;5112887;28;20184;-72
2021/01/18 11:29:18;;;;;;;4.37;3.93;;;5.80;28.60;;;;;;5097652;28;20180;-72
2021/01/18 11:31:45;;;;;;;3.77;3.43;;;5.80;28.10;;;;;;5101037;28;20561;-74
2021/01/18 11:34:12;;;;;;;3.97;3.57;;;5.50;28.30;;;;;;5103256;28;20476;-72
2021/01/18 11:36:39;;;;;;;4.83;4.33;;;5.30;28.50;;;;;;5119112;28;20928;-72
2021/01/18 11:39:08;;;;;;;4.37;3.97;;;5.10;29.00;;;;;;5096898;28;20430;-71
2021/01/18 11:41:35;;;;;;;4.40;4.00;;;5.00;29.30;;;;;;5116193;28;20429;-73
2021/01/18 11:44:05;;;;;;;6.13;4.13;;;4.90;29.70;;;;;;5101439;28;20180;-74
2021/01/18 11:46:31;;;;;;;3.70;3.40;;;4.90;30.10;;;;;;5120141;28;20178;-73
2021/01/18 11:48:57;;;;;;;6.40;4.43;;;4.90;30.30;;;;;;5097427;28;20512;-72
2021/01/18 11:51:23;;;;;;;4.60;3.80;;;4.90;30.00;;;;;;5112745;28;20468;-73
2021/01/18 11:53:49;;;;;;;6.53;4.37;;;4.90;30.00;;;;;;5094932;28;20618;-72
2021/01/18 11:56:15;;;;;;;4.70;4.20;;;4.80;30.60;;;;;;5111977;28;20405;-73
2021/01/18 11:58:41;;;;;;;5.57;4.13;;;4.90;30.60;;;;;;5112820;28;20956;-72
2021/01/18 12:01:07;;;;;;;4.88;4.35;;;4.90;30.50;;;;;;5094595;28;20224;-72
2021/01/18 12:03:33;;;;;;;13.03;3.83;;;5.00;30.90;;;;;;5095513;28;20173;-73
2021/01/18 12:05:59;;;;;;;5.90;3.97;;;5.10;30.00;;;;;;5113164;28;20898;-73
2021/01/18 12:08:25;;;;;;;11.47;4.17;;;;;;;;;;5094717;28;20554;-73
2021/01/18 12:10:50;;;;;;;5.43;4.47;;;;;;;;;;5095286;28;20192;-73
2021/01/18 12:13:16;;;;;;;6.03;5.43;;;5.20;30.20;;;;;;5113218;28;20898;-73
2021/01/18 12:15:42;;;;;;;5.53;4.10;;;5.50;28.80;;;;;;5112762;28;20455;-72
2021/01/18 12:18:08;;;;;;;11.00;3.53;;;5.50;29.20;;;;;;5094550;28;20655;-73
2021/01/18 12:20:33;;;;;;;6.67;4.33;;;5.60;28.70;;;;;;5111896;28;20192;-73
2021/01/18 12:22:59;;;;;;;4.93;4.17;;;5.60;28.70;;;;;;5112420;28;20413;-73
2021/01/18 12:25:25;;;;;;;5.03;4.50;;;5.60;28.70;;;;;;5112218;28;20253;-73
2021/01/18 12:27:56;;;;;;;4.17;3.70;;;5.60;28.70;;;;;;5112115;28;20200;-73
2021/01/18 12:30:23;;;;;;;5.20;4.70;;;5.70;28.50;;;;;;5112097;28;20434;-73
2021/01/18 12:32:50;;;;;;;7.27;4.50;;;5.70;28.40;;;;;;5112196;28;20409;-73
2021/01/18 12:35:16;;;;;;;4.63;4.23;;;5.60;28.40;;;;;;5113020;28;20500;-73
2021/01/18 12:37:42;;;;;;;4.10;3.80;;;5.80;28.10;;;;;;5094847;28;20418;-74
2021/01/18 12:40:12;;;;;;;5.13;3.83;;;5.80;28.00;;;;;;5117873;28;20775;-73
2021/01/18 12:42:45;;;;;;;6.30;4.20;;;5.80;27.80;;;;;;5125747;28;20441;-73
2021/01/18 12:45:15;;;;;;;5.87;4.83;;;5.90;27.70;;;;;;5113289;28;20484;-73
2021/01/18 12:47:42;;;;;;;5.40;4.90;;;6.00;27.60;;;;;;5115231;28;20414;-73
2021/01/18 12:50:13;;;;;;;5.80;4.80;;;5.90;26.80;;;;;;5112739;28;20417;-73
2021/01/18 12:52:42;;;;;;;5.67;4.83;;;5.90;27.40;;;;;;5111506;28;20406;-72
2021/01/18 12:55:09;;;;;;;5.63;4.60;;;5.80;27.60;;;;;;5092797;28;20495;-72
2021/01/18 12:57:35;;;;;;;4.87;4.47;;;5.70;27.40;;;;;;5111304;28;20402;-72
2021/01/18 13:00:00;;;;;;;4.50;4.10;;;5.70;27.50;;;;;;5110786;28;20498;-73
2021/01/18 13:02:26;;;;;;;4.97;4.57;;;5.60;27.50;;;;;;5092854;28;20176;-72
2021/01/18 13:04:52;;;;;;;10.10;4.00;;;5.50;27.90;;;;;;5110826;28;20172;-73
2021/01/18 13:07:18;;;;;;;6.97;6.27;;;5.40;27.90;;;;;;5113313;28;20175;-72
2021/01/18 13:09:43;;;;;;;13.53;6.70;;;5.30;28.50;;;;;;5114318;28;20434;-71
2021/01/18 13:12:09;;;;;;;8.13;5.53;;;5.30;28.50;;;;;;5114430;28;20195;-73